Wir entschlüsseln den Flugwetter-Code

Aviatik und Wetter sind eng verbunden. So gibt es für Piloten spezielle Meteoprodukte: Der Flughafen Zürich meldete am Freitag folgendes Wetter: METAR LSZH 101120Z 32006KT 9999 FEW015 BKN120 19/15 Q1016 NOSIG=. Was das genau heisst und noch viel mehr gibt es in dieser «Wetterbox».

Blick in das Cockpit eines Airbus 319. Wer ein Flugzeug steuert, braucht fundierte Wetterkenntnisse.
Bildlegende: Blick in das Cockpit eines Airbus 319. Wer ein Flugzeug steuert, braucht fundierte Wetterkenntnisse. Keystone

Redaktion: Daniela Schmucki